Argent Gerbera — V7UC4 — position and weather

sailwx.info

Track history (hours):
 
Tides and Currents Weather Stations Pressure Air Temp Water Temp Dewpoint Dewpoint Depression Visibility Wind Speed Wind Dir Waves Ship Positions

Argent Gerbera

Last reported at 2015-Aug-29 14:33 UTC. Time now 2015-Sep-02 10:32 UTC.
Position N 03°20' E 100°31'.

Length 175 m; draft 9.7 m.

Type: Tanker. MMSI: 538003929.

Date/timePositionNaut miles runAvg speedWind from/ knotsBaromVisibWave heightAir tempDewpointWater temp
2015-Aug-29 14:33N 03°20' E 100°31'2517.3
2015-Aug-29 13:06N 03°02' E 100°48'2715.3
2015-Aug-29 11:21N 02°48' E 101°11'17 9.6
2015-Aug-29 09:33N 02°59' E 101°24'0 0.0
2015-Aug-29 06:31N 02°59' E 101°24'0 0.0
2015-Aug-29 04:31N 02°59' E 101°24'0 0.0
2015-Aug-29 01:28N 02°59' E 101°24'0 0.0
2015-Aug-29 00:31N 02°59' E 101°24'0 0.0
2015-Aug-28 22:25N 02°59' E 101°24'0 0.0
2015-Aug-28 20:28N 02°59' E 101°24'0 0.0
2015-Aug-28 18:31N 02°59' E 101°24'0 0.0
2015-Aug-28 16:31N 02°59' E 101°24'0 0.0
2015-Aug-28 06:15N 02°59' E 101°24'0 0.0
2015-Aug-28 04:34N 02°59' E 101°24'0 0.0
2015-Aug-28 02:31N 02°59' E 101°24'0 0.0
2015-Aug-28 00:31N 02°59' E 101°24'5 1.3
2015-Aug-27 20:33N 02°58' E 101°19'1110.6
2015-Aug-27 19:33N 02°48' E 101°15'8 3.8
2015-Aug-27 17:33N 02°42' E 101°19'16915.4
2015-Aug-27 06:33N 01°10' E 103°41'1515.3
2015-Aug-27 05:33N 01°14' E 103°56'10 9.3
2015-Aug-27 04:29N 01°21' E 104°03'1010.3
2015-Aug-27 03:33N 01°26' E 103°54'1 0.0
2015-Aug-26 04:23N 01°25' E 103°55'1010.6
2015-Aug-26 03:29N 01°21' E 104°04'3 2.7
2015-Aug-26 02:19N 01°20' E 104°07'0 0.0
2015-Aug-26 01:22N 01°20' E 104°07'0 0.0
2015-Aug-25 22:19N 01°20' E 104°07'0 0.1
2015-Aug-25 21:19N 01°20' E 104°07'0 0.1
2015-Aug-25 20:31N 01°20' E 104°07'0 0.0
2015-Aug-25 19:19N 01°20' E 104°07'0 0.1
2015-Aug-25 17:25N 01°20' E 104°07'0 0.0
2015-Aug-25 15:04N 01°20' E 104°07'0 0.0
2015-Aug-25 14:22N 01°20' E 104°07'0 0.0
2015-Aug-25 10:07N 01°20' E 104°07'0 0.0
2015-Aug-25 03:31N 01°20' E 104°07'0 0.0
2015-Aug-24 22:19N 01°20' E 104°07'0 0.0
2015-Aug-24 20:07N 01°20' E 104°07'0 0.1
2015-Aug-24 17:13N 01°20' E 104°07'2 0.9
2015-Aug-24 14:32N 01°20' E 104°05'12 9.3
2015-Aug-24 13:14N 01°26' E 103°54'  
2015-Aug-21 07:28N 01°20' E 104°06'0 0.0
2015-Aug-21 04:05N 01°20' E 104°06'0 0.1
2015-Aug-21 03:31N 01°20' E 104°06'0 0.0
2015-Aug-21 02:04N 01°20' E 104°06'0 0.0
2015-Aug-21 01:25N 01°20' E 104°06'0 0.0
2015-Aug-20 21:28N 01°20' E 104°06'0 0.0
2015-Aug-20 20:19N 01°20' E 104°06'0 0.1
2015-Aug-20 19:19N 01°20' E 104°06'0 0.1
2015-Aug-20 18:16N 01°20' E 104°06'0 0.0
2015-Aug-20 17:22N 01°20' E 104°06'0 0.0
2015-Aug-20 16:25N 01°20' E 104°06'0 0.0
2015-Aug-20 14:16N 01°20' E 104°06'0 0.0
2015-Aug-20 11:31N 01°20' E 104°06'0 0.0
2015-Aug-20 10:22N 01°20' E 104°06'0 0.0
2015-Aug-20 09:28N 01°20' E 104°06'0 0.0
2015-Aug-20 08:25N 01°20' E 104°06'0 0.0
2015-Aug-20 07:32N 01°20' E 104°06'7 5.7
2015-Aug-20 06:22N 01°15' E 104°02'1114.0
2015-Aug-20 05:33N 01°11' E 103°51'12 5.3
2015-Aug-20 03:20N 01°12' E 103°39'1 0.2
2015-Aug-19 21:13N 01°13' E 103°39'  
Track history (hours):
 
Tides and Currents Weather Stations Pressure Air Temp Water Temp Dewpoint Dewpoint Depression Visibility Wind Speed Wind Dir Waves Ship Positions

Argent Gerbera

Last reported at 2015-Aug-29 14:33 UTC. Time now 2015-Sep-02 10:32 UTC.
Position N 03°20' E 100°31'.

Length 175 m; draft 9.7 m.

Type: Tanker. MMSI: 538003929.

Date/timePositionNaut miles runAvg speedWind from/ knotsBaromVisibWave heightAir tempDewpointWater temp
2015-Aug-29 14:33N 03°20' E 100°31'2517.3
2015-Aug-29 13:06N 03°02' E 100°48'2715.3
2015-Aug-29 11:21N 02°48' E 101°11'17 9.6
2015-Aug-29 09:33N 02°59' E 101°24'0 0.0
2015-Aug-29 06:31N 02°59' E 101°24'0 0.0
2015-Aug-29 04:31N 02°59' E 101°24'0 0.0
2015-Aug-29 01:28N 02°59' E 101°24'0 0.0
2015-Aug-29 00:31N 02°59' E 101°24'0 0.0
2015-Aug-28 22:25N 02°59' E 101°24'0 0.0
2015-Aug-28 20:28N 02°59' E 101°24'0 0.0
2015-Aug-28 18:31N 02°59' E 101°24'0 0.0
2015-Aug-28 16:31N 02°59' E 101°24'0 0.0
2015-Aug-28 06:15N 02°59' E 101°24'0 0.0
2015-Aug-28 04:34N 02°59' E 101°24'0 0.0
2015-Aug-28 02:31N 02°59' E 101°24'0 0.0
2015-Aug-28 00:31N 02°59' E 101°24'5 1.3
2015-Aug-27 20:33N 02°58' E 101°19'1110.6
2015-Aug-27 19:33N 02°48' E 101°15'8 3.8
2015-Aug-27 17:33N 02°42' E 101°19'16915.4
2015-Aug-27 06:33N 01°10' E 103°41'1515.3
2015-Aug-27 05:33N 01°14' E 103°56'10 9.3
2015-Aug-27 04:29N 01°21' E 104°03'1010.3
2015-Aug-27 03:33N 01°26' E 103°54'1 0.0
2015-Aug-26 04:23N 01°25' E 103°55'1010.6
2015-Aug-26 03:29N 01°21' E 104°04'3 2.7
2015-Aug-26 02:19N 01°20' E 104°07'0 0.0
2015-Aug-26 01:22N 01°20' E 104°07'0 0.0
2015-Aug-25 22:19N 01°20' E 104°07'0 0.1
2015-Aug-25 21:19N 01°20' E 104°07'0 0.1
2015-Aug-25 20:31N 01°20' E 104°07'0 0.0
2015-Aug-25 19:19N 01°20' E 104°07'0 0.1
2015-Aug-25 17:25N 01°20' E 104°07'0 0.0
2015-Aug-25 15:04N 01°20' E 104°07'0 0.0
2015-Aug-25 14:22N 01°20' E 104°07'0 0.0
2015-Aug-25 10:07N 01°20' E 104°07'0 0.0
2015-Aug-25 03:31N 01°20' E 104°07'0 0.0
2015-Aug-24 22:19N 01°20' E 104°07'0 0.0
2015-Aug-24 20:07N 01°20' E 104°07'0 0.1
2015-Aug-24 17:13N 01°20' E 104°07'2 0.9
2015-Aug-24 14:32N 01°20' E 104°05'12 9.3
2015-Aug-24 13:14N 01°26' E 103°54'  
2015-Aug-21 07:28N 01°20' E 104°06'0 0.0
2015-Aug-21 04:05N 01°20' E 104°06'0 0.1
2015-Aug-21 03:31N 01°20' E 104°06'0 0.0
2015-Aug-21 02:04N 01°20' E 104°06'0 0.0
2015-Aug-21 01:25N 01°20' E 104°06'0 0.0
2015-Aug-20 21:28N 01°20' E 104°06'0 0.0
2015-Aug-20 20:19N 01°20' E 104°06'0 0.1
2015-Aug-20 19:19N 01°20' E 104°06'0 0.1
2015-Aug-20 18:16N 01°20' E 104°06'0 0.0
2015-Aug-20 17:22N 01°20' E 104°06'0 0.0
2015-Aug-20 16:25N 01°20' E 104°06'0 0.0
2015-Aug-20 14:16N 01°20' E 104°06'0 0.0
2015-Aug-20 11:31N 01°20' E 104°06'0 0.0
2015-Aug-20 10:22N 01°20' E 104°06'0 0.0
2015-Aug-20 09:28N 01°20' E 104°06'0 0.0
2015-Aug-20 08:25N 01°20' E 104°06'0 0.0
2015-Aug-20 07:32N 01°20' E 104°06'7 5.7
2015-Aug-20 06:22N 01°15' E 104°02'1114.0
2015-Aug-20 05:33N 01°11' E 103°51'12 5.3
2015-Aug-20 03:20N 01°12' E 103°39'1 0.2
2015-Aug-19 21:13N 01°13' E 103°39'  

Dump ship's entire track history